Aviation Digital Data Service (ADDS)

Output produced by TAFs form (1247 UTC 13 February 2016)
found at http://aviationweather.gov/adds/tafs/
 
KGJT 131120Z 1312/1412 12004KT P6SM BKN250 
     FM132100 27004KT P6SM SCT250 
     FM140400 VRB04KT P6SM SCT250